FIJ15 NWWW-NWWU
Flight info
| Callsign | FIJ15 |
|---|---|
| Flight time | N/A |
| Altitude | 10000 |
| Route | LTO3E LTO |
| Aircraft | DHC6/L-SDFGR/C |
Departure
| Time | 2026-04-15 02:14 |
|---|---|
| Airport | La Tontouta International Airport (NWWW) |
Arrival
| Time | N/A |
|---|---|
| Airport | Touho Airport (NWWU) |
| Time | Latitude | Longitude | Altitude | Speed | Heading |
|---|---|---|---|---|---|
| 2026-04-15 01:58 | -22.01440 | 166.21723 | 21 ft | 0 kts | 30° |
| 2026-04-15 02:12 | -22.01439 | 166.21723 | 23 ft | 0 kts | 41° |
| 2026-04-15 02:12 | -22.01442 | 166.21727 | 20 ft | 1 kts | 172° |
| 2026-04-15 02:13 | -22.01469 | 166.21711 | 20 ft | 9 kts | 207° |
| 2026-04-15 02:13 | -22.01482 | 166.21704 | 20 ft | 5 kts | 213° |
| 2026-04-15 02:13 | -22.01556 | 166.21665 | 21 ft | 16 kts | 199° |
| 2026-04-15 02:13 | -22.01649 | 166.21654 | 22 ft | 12 kts | 130° |
| 2026-04-15 02:14 | -22.01709 | 166.21759 | 24 ft | 36 kts | 119° |
| 2026-04-15 02:14 | -22.01934 | 166.22160 | 99 ft | 80 kts | 124° |
| 2026-04-15 02:14 | -22.02252 | 166.22705 | 369 ft | 95 kts | 125° |
| 2026-04-15 02:14 | -22.02632 | 166.23321 | 730 ft | 106 kts | 125° |
| 2026-04-15 02:15 | -22.02969 | 166.24030 | 1241 ft | 103 kts | 118° |
| 2026-04-15 02:15 | -22.03325 | 166.24725 | 1679 ft | 102 kts | 124° |
| 2026-04-15 02:15 | -22.03769 | 166.25375 | 1907 ft | 123 kts | 126° |
| 2026-04-15 02:15 | -22.04374 | 166.26107 | 2015 ft | 129 kts | 135° |
| 2026-04-15 02:16 | -22.05076 | 166.26729 | 2302 ft | 134 kts | 142° |
| 2026-04-15 02:16 | -22.05988 | 166.26993 | 2385 ft | 152 kts | 189° |
| 2026-04-15 02:16 | -22.06975 | 166.26503 | 2524 ft | 154 kts | 206° |
| 2026-04-15 02:16 | -22.07779 | 166.25791 | 2776 ft | 151 kts | 219° |
| 2026-04-15 02:17 | -22.08636 | 166.25089 | 2860 ft | 159 kts | 213° |
| 2026-04-15 02:17 | -22.09603 | 166.24416 | 2763 ft | 169 kts | 210° |
| 2026-04-15 02:17 | -22.10620 | 166.23740 | 2690 ft | 174 kts | 210° |
| 2026-04-15 02:17 | -22.11662 | 166.23047 | 2627 ft | 178 kts | 209° |
| 2026-04-15 02:18 | -22.12338 | 166.22591 | 3432 ft | 136 kts | 216° |
| 2026-04-15 02:18 | -22.12909 | 166.21767 | 3482 ft | 149 kts | 250° |
| 2026-04-15 02:18 | -22.12992 | 166.20693 | 3736 ft | 138 kts | 272° |
| 2026-04-15 02:18 | -22.12909 | 166.19678 | 3960 ft | 135 kts | 288° |
| 2026-04-15 02:19 | -22.12214 | 166.18996 | 3953 ft | 146 kts | 348° |
| 2026-04-15 02:19 | -22.11217 | 166.18929 | 4049 ft | 141 kts | 5° |
| 2026-04-15 02:19 | -22.10233 | 166.19095 | 4016 ft | 150 kts | 11° |
| 2026-04-15 02:19 | -22.09494 | 166.19234 | 4000 ft | 152 kts | 9° |